createdAt,value
2018-07-13T00:00:28.339Z,17.16
2018-07-13T00:01:28.340Z,17.17
2018-07-13T00:02:28.341Z,17.20
2018-07-13T00:03:28.341Z,17.27
2018-07-13T00:04:28.342Z,17.22
2018-07-13T00:05:28.343Z,17.22
2018-07-13T00:06:28.352Z,17.27
2018-07-13T00:07:28.387Z,17.23
2018-07-13T00:08:28.345Z,17.30
2018-07-13T00:09:28.347Z,17.34
2018-07-13T00:10:28.348Z,17.35
2018-07-13T00:11:28.350Z,17.38
2018-07-13T00:12:28.349Z,17.41
2018-07-13T00:13:28.351Z,17.38
2018-07-13T00:14:28.351Z,17.32
2018-07-13T00:15:28.352Z,17.35
2018-07-13T00:16:28.352Z,17.38
2018-07-13T00:17:28.354Z,17.38
2018-07-13T00:18:28.355Z,17.39
2018-07-13T00:19:28.354Z,17.34
2018-07-13T00:20:28.355Z,17.30
2018-07-13T00:21:28.356Z,17.35
2018-07-13T00:22:28.357Z,17.38
2018-07-13T00:23:28.358Z,17.35
2018-07-13T00:24:28.358Z,17.22
2018-07-13T00:25:28.359Z,17.20
2018-07-13T00:26:28.360Z,17.17
2018-07-13T00:27:28.359Z,17.09
2018-07-13T00:28:28.361Z,17.23
2018-07-13T00:29:28.361Z,17.20
2018-07-13T00:30:28.361Z,17.12
2018-07-13T00:31:28.363Z,17.07
2018-07-13T00:32:28.362Z,17.07
2018-07-13T00:33:28.364Z,17.10
2018-07-13T00:34:28.367Z,17.04
2018-07-13T00:35:28.364Z,17.13
2018-07-13T00:36:28.364Z,17.16
2018-07-13T00:37:28.366Z,17.14
2018-07-13T00:38:28.365Z,17.01
2018-07-13T00:39:28.368Z,16.99
2018-07-13T00:40:28.367Z,17.02
2018-07-13T00:41:28.369Z,17.01
2018-07-13T00:42:28.369Z,16.89
2018-07-13T00:43:28.370Z,16.86
2018-07-13T00:44:28.369Z,16.87
2018-07-13T00:45:28.369Z,16.86
2018-07-13T00:46:28.370Z,16.77
2018-07-13T00:47:28.370Z,16.77
2018-07-13T00:48:28.370Z,16.76
2018-07-13T00:49:28.373Z,16.84
2018-07-13T00:50:28.373Z,16.79
2018-07-13T00:51:28.374Z,16.76
2018-07-13T00:52:28.373Z,16.77
2018-07-13T00:53:28.377Z,16.84
2018-07-13T00:54:28.376Z,16.80
2018-07-13T00:55:28.375Z,16.86
2018-07-13T00:56:28.375Z,16.79
2018-07-13T00:57:28.376Z,16.80
2018-07-13T00:58:28.378Z,16.92
2018-07-13T00:59:28.377Z,16.94
2018-07-13T01:00:28.378Z,16.94
2018-07-13T01:01:28.378Z,16.89
2018-07-13T01:02:28.378Z,16.79
2018-07-13T01:03:28.380Z,16.80
2018-07-13T01:04:28.379Z,16.86
2018-07-13T01:05:28.382Z,16.89
2018-07-13T01:06:28.380Z,16.83
2018-07-13T01:07:28.381Z,16.82
2018-07-13T01:08:28.383Z,16.87
2018-07-13T01:09:28.383Z,16.92
2018-07-13T01:10:28.382Z,16.84
2018-07-13T01:11:28.383Z,16.86
2018-07-13T01:12:28.383Z,16.80
2018-07-13T01:13:28.382Z,16.77
2018-07-13T01:14:28.383Z,16.76
2018-07-13T01:15:28.384Z,16.83
2018-07-13T01:16:28.384Z,16.76
2018-07-13T01:17:28.383Z,16.68
2018-07-13T01:18:28.385Z,16.66
2018-07-13T01:19:28.386Z,16.69
2018-07-13T01:20:28.384Z,16.69
2018-07-13T01:21:28.385Z,16.65
2018-07-13T01:22:28.386Z,16.62
2018-07-13T01:23:28.387Z,16.59
2018-07-13T01:24:28.386Z,16.66
2018-07-13T01:25:28.388Z,16.68
2018-07-13T01:26:28.388Z,16.64
2018-07-13T01:27:28.388Z,16.68
2018-07-13T01:28:28.391Z,16.64
2018-07-13T01:29:28.389Z,16.58
2018-07-13T01:30:28.388Z,16.69
2018-07-13T01:31:28.390Z,16.68
2018-07-13T01:32:28.388Z,16.72
2018-07-13T01:33:28.389Z,16.65
2018-07-13T01:34:28.389Z,16.69
2018-07-13T01:35:28.390Z,16.68
2018-07-13T01:36:28.390Z,16.59
2018-07-13T01:37:28.390Z,16.65
2018-07-13T01:38:28.391Z,16.57
2018-07-13T01:39:28.392Z,16.62
2018-07-13T01:40:28.391Z,16.62
2018-07-13T01:41:28.391Z,16.54
2018-07-13T01:42:28.391Z,16.59
2018-07-13T01:43:28.392Z,16.61
2018-07-13T01:44:28.390Z,16.62
2018-07-13T01:45:28.392Z,16.61
2018-07-13T01:46:28.393Z,16.59
2018-07-13T01:47:28.393Z,16.58
2018-07-13T01:48:28.397Z,16.55
2018-07-13T01:49:28.393Z,16.57
2018-07-13T01:50:28.392Z,16.59
2018-07-13T01:51:28.393Z,16.58
2018-07-13T01:52:28.392Z,16.58
2018-07-13T01:53:28.392Z,16.51
2018-07-13T01:54:28.393Z,16.58
2018-07-13T01:55:28.392Z,16.47
2018-07-13T01:56:28.393Z,16.55
2018-07-13T01:57:28.393Z,16.51
2018-07-13T01:58:28.393Z,16.47
2018-07-13T01:59:28.393Z,16.40
2018-07-13T02:00:28.394Z,16.40
2018-07-13T02:01:28.394Z,16.34
2018-07-13T02:02:28.393Z,16.31
2018-07-13T02:03:28.396Z,16.34
2018-07-13T02:04:28.393Z,16.31
2018-07-13T02:05:28.393Z,16.28
2018-07-13T02:06:28.394Z,16.13
2018-07-13T02:07:28.394Z,16.17
2018-07-13T02:08:28.394Z,16.05
2018-07-13T02:09:28.393Z,16.08
2018-07-13T02:10:28.394Z,16.08
2018-07-13T02:11:28.393Z,15.98
2018-07-13T02:12:28.396Z,16.08
2018-07-13T02:13:28.398Z,16.00
2018-07-13T02:14:28.394Z,15.94
2018-07-13T02:15:28.394Z,16.09
2018-07-13T02:16:28.394Z,16.02
2018-07-13T02:17:28.394Z,16.00
2018-07-13T02:18:28.395Z,16.05
2018-07-13T02:19:28.394Z,15.96
2018-07-13T02:20:28.395Z,15.99
2018-07-13T02:21:28.393Z,15.99
2018-07-13T02:22:28.394Z,15.94
2018-07-13T02:23:28.393Z,16.05
2018-07-13T02:24:28.393Z,16.00
2018-07-13T02:25:28.393Z,16.05
2018-07-13T02:26:28.392Z,15.99
2018-07-13T02:27:28.394Z,16.02
2018-07-13T02:28:28.392Z,16.06
2018-07-13T02:29:28.394Z,15.99
2018-07-13T02:30:28.392Z,15.98
2018-07-13T02:31:28.393Z,15.92
2018-07-13T02:32:28.392Z,15.91
2018-07-13T02:33:28.391Z,15.90
2018-07-13T02:34:28.392Z,15.88
2018-07-13T02:35:28.396Z,15.88
2018-07-13T02:36:28.393Z,15.84
2018-07-13T02:37:28.394Z,15.91
2018-07-13T02:38:28.391Z,15.96
2018-07-13T02:39:28.391Z,15.88
2018-07-13T02:40:28.390Z,15.99
2018-07-13T02:41:28.391Z,16.03
2018-07-13T02:42:28.393Z,15.91
2018-07-13T02:43:28.389Z,15.96
2018-07-13T02:44:28.388Z,15.94
2018-07-13T02:45:28.390Z,15.92
2018-07-13T02:46:28.390Z,15.91
2018-07-13T02:47:28.391Z,15.87
2018-07-13T02:48:28.387Z,15.84
2018-07-13T02:49:28.388Z,15.94
2018-07-13T02:50:28.389Z,15.88
2018-07-13T02:51:28.389Z,15.88
2018-07-13T02:52:28.387Z,15.87
2018-07-13T02:53:28.386Z,15.91
2018-07-13T02:54:28.388Z,15.84
2018-07-13T02:55:28.388Z,15.90
2018-07-13T02:56:28.387Z,15.88
2018-07-13T02:57:28.387Z,15.81
2018-07-13T02:58:28.389Z,15.81
2018-07-13T02:59:28.386Z,15.73
2018-07-13T03:00:28.385Z,15.73
2018-07-13T03:01:28.385Z,15.76
2018-07-13T03:02:28.385Z,15.70
2018-07-13T03:03:28.387Z,15.70
2018-07-13T03:04:28.383Z,15.72
2018-07-13T03:05:28.383Z,15.65
2018-07-13T03:06:28.385Z,15.63
2018-07-13T03:07:28.384Z,15.59
2018-07-13T03:08:28.383Z,15.50
2018-07-13T03:09:28.381Z,15.63
2018-07-13T03:10:28.382Z,15.50
2018-07-13T03:11:28.382Z,15.52
2018-07-13T03:12:28.382Z,15.55
2018-07-13T03:13:28.380Z,15.52
2018-07-13T03:14:28.379Z,15.47
2018-07-13T03:15:28.380Z,15.41
2018-07-13T03:16:28.378Z,15.45
2018-07-13T03:17:28.391Z,15.47
2018-07-13T03:18:28.380Z,15.45
2018-07-13T03:19:28.378Z,15.44
2018-07-13T03:20:28.378Z,15.39
2018-07-13T03:21:28.377Z,15.41
2018-07-13T03:22:28.375Z,15.44
2018-07-13T03:23:28.375Z,15.43
2018-07-13T03:24:28.374Z,15.39
2018-07-13T03:25:28.375Z,15.35
2018-07-13T03:26:28.373Z,15.37
2018-07-13T03:27:28.373Z,15.41
2018-07-13T03:28:28.372Z,15.45
2018-07-13T03:29:28.375Z,15.47
2018-07-13T03:30:28.372Z,15.45
2018-07-13T03:31:28.373Z,15.47
2018-07-13T03:32:28.370Z,15.44
2018-07-13T03:33:28.369Z,15.52
2018-07-13T03:34:28.370Z,15.57
2018-07-13T03:35:28.372Z,15.54
2018-07-13T03:36:28.367Z,15.43
2018-07-13T03:37:28.368Z,15.52
2018-07-13T03:38:28.484Z,15.51
2018-07-13T03:39:28.369Z,15.54
2018-07-13T03:40:28.367Z,15.54
2018-07-13T03:41:28.366Z,15.52
2018-07-13T03:42:28.368Z,15.59
2018-07-13T03:43:28.365Z,15.51
2018-07-13T03:44:28.365Z,15.54
2018-07-13T03:45:28.362Z,15.52
2018-07-13T03:46:28.362Z,15.55
2018-07-13T03:47:28.362Z,15.59
2018-07-13T03:48:28.372Z,15.52
2018-07-13T03:49:28.363Z,15.59
2018-07-13T03:50:28.360Z,15.66
2018-07-13T03:51:28.361Z,15.59
2018-07-13T03:52:28.359Z,15.62
2018-07-13T03:53:28.359Z,15.63
2018-07-13T03:54:28.362Z,15.67
2018-07-13T03:55:28.359Z,15.59
2018-07-13T03:56:28.358Z,15.60
2018-07-13T03:57:28.356Z,15.62
2018-07-13T03:58:28.356Z,15.65
2018-07-13T03:59:28.357Z,15.59
2018-07-13T04:00:28.373Z,15.62
2018-07-13T04:01:28.354Z,15.59
2018-07-13T04:02:28.356Z,15.55
2018-07-13T04:03:28.355Z,15.55
2018-07-13T04:04:28.357Z,15.47
2018-07-13T04:05:28.354Z,15.54
2018-07-13T04:06:28.413Z,15.54
2018-07-13T04:07:28.352Z,15.52
2018-07-13T04:08:28.352Z,15.47
2018-07-13T04:09:28.352Z,15.59
2018-07-13T04:10:28.351Z,15.51
2018-07-13T04:11:28.350Z,15.59
2018-07-13T04:12:28.401Z,15.59
2018-07-13T04:13:28.350Z,15.59
2018-07-13T04:14:28.350Z,15.54
2018-07-13T04:15:28.350Z,15.57
2018-07-13T04:16:28.348Z,15.65
2018-07-13T04:17:28.348Z,15.50
2018-07-13T04:18:28.346Z,15.51
2018-07-13T04:19:28.347Z,15.55
2018-07-13T04:20:28.346Z,15.41
2018-07-13T04:21:28.349Z,15.36
2018-07-13T04:22:28.345Z,15.55
2018-07-13T04:23:28.345Z,15.54
2018-07-13T04:24:28.346Z,15.52
2018-07-13T04:25:28.344Z,15.60
2018-07-13T04:26:28.345Z,15.59
2018-07-13T04:27:28.343Z,15.57
2018-07-13T04:28:28.343Z,15.55
2018-07-13T04:29:28.342Z,15.63
2018-07-13T04:30:28.342Z,15.69
2018-07-13T04:31:28.342Z,15.65
2018-07-13T04:32:28.341Z,15.66
2018-07-13T04:33:28.340Z,15.76
2018-07-13T04:34:28.340Z,15.69
2018-07-13T04:35:28.340Z,15.73
2018-07-13T04:36:28.339Z,15.78
2018-07-13T04:37:28.340Z,15.88
2018-07-13T04:38:28.339Z,15.84
2018-07-13T04:39:28.387Z,15.76
2018-07-13T04:40:28.338Z,15.83
2018-07-13T04:41:28.338Z,15.85
2018-07-13T04:42:28.339Z,15.81
2018-07-13T04:43:28.337Z,15.85
2018-07-13T04:44:28.339Z,16.02
2018-07-13T04:45:28.336Z,16.00
2018-07-13T04:46:28.336Z,15.91
2018-07-13T04:47:28.336Z,15.92
2018-07-13T04:48:28.335Z,15.88
2018-07-13T04:49:28.336Z,15.99
2018-07-13T04:50:28.337Z,16.02
2018-07-13T04:51:28.335Z,16.08
2018-07-13T04:52:28.334Z,16.03
2018-07-13T04:53:28.334Z,16.06
2018-07-13T04:54:28.333Z,16.13
2018-07-13T04:55:28.334Z,16.10
2018-07-13T04:56:28.332Z,16.05
2018-07-13T04:57:28.333Z,16.13
2018-07-13T04:58:28.333Z,16.21
2018-07-13T04:59:28.333Z,16.05
2018-07-13T05:00:28.333Z,16.05
2018-07-13T05:01:28.332Z,16.16
2018-07-13T05:02:28.331Z,16.18
2018-07-13T05:03:28.332Z,16.17
2018-07-13T05:04:28.332Z,16.22
2018-07-13T05:05:28.331Z,16.28
2018-07-13T05:06:28.331Z,16.26
2018-07-13T05:07:28.333Z,16.26
2018-07-13T05:08:28.331Z,16.26
2018-07-13T05:09:28.334Z,16.29
2018-07-13T05:10:28.330Z,16.28
2018-07-13T05:11:28.331Z,16.18
2018-07-13T05:12:28.332Z,16.31
2018-07-13T05:13:28.329Z,16.21
2018-07-13T05:14:28.331Z,16.29
2018-07-13T05:15:28.330Z,16.26
2018-07-13T05:16:28.329Z,16.26
2018-07-13T05:17:28.329Z,16.36
2018-07-13T05:18:28.330Z,16.40
2018-07-13T05:19:28.332Z,16.40
2018-07-13T05:20:28.328Z,16.49
2018-07-13T05:21:28.329Z,16.47
2018-07-13T05:22:28.330Z,16.59
2018-07-13T05:23:28.333Z,16.59
2018-07-13T05:24:28.329Z,16.61
2018-07-13T05:25:28.329Z,16.54
2018-07-13T05:26:28.331Z,16.51
2018-07-13T05:27:28.332Z,16.55
2018-07-13T05:28:28.330Z,16.59
2018-07-13T05:29:28.331Z,16.64
2018-07-13T05:30:28.330Z,16.51
2018-07-13T05:31:28.331Z,16.61
2018-07-13T05:32:28.331Z,16.57
2018-07-13T05:33:28.337Z,16.55
2018-07-13T05:34:28.331Z,16.72
2018-07-13T05:35:28.332Z,16.64
2018-07-13T05:36:28.331Z,16.64
2018-07-13T05:37:28.334Z,16.84
2018-07-13T05:38:28.446Z,16.82
2018-07-13T05:39:28.333Z,16.77
2018-07-13T05:40:28.332Z,16.86
2018-07-13T05:41:28.333Z,16.94
2018-07-13T05:42:28.333Z,17.04
2018-07-13T05:43:28.335Z,17.01
2018-07-13T05:44:28.334Z,17.10
2018-07-13T05:45:28.334Z,17.10
2018-07-13T05:46:28.337Z,17.20
2018-07-13T05:47:28.337Z,17.22
2018-07-13T05:48:28.336Z,17.27
2018-07-13T05:49:28.336Z,17.19
2018-07-13T05:50:28.339Z,17.22
2018-07-13T05:51:28.339Z,17.30
2018-07-13T05:52:28.339Z,17.34
2018-07-13T05:53:28.339Z,17.32
2018-07-13T05:54:28.405Z,17.42
2018-07-13T05:55:28.388Z,17.37
2018-07-13T05:56:28.341Z,17.42
2018-07-13T05:57:28.340Z,17.42
2018-07-13T05:58:28.343Z,17.50
2018-07-13T05:59:28.342Z,17.53
2018-07-13T06:00:28.344Z,17.47
2018-07-13T06:01:28.345Z,17.56
2018-07-13T06:02:28.346Z,17.44
2018-07-13T06:03:28.346Z,17.49
2018-07-13T06:04:28.347Z,17.53
2018-07-13T06:05:28.348Z,17.53
2018-07-13T06:06:28.349Z,17.53
2018-07-13T06:07:28.350Z,17.54
2018-07-13T06:08:28.349Z,17.52
2018-07-13T06:09:28.352Z,17.63
2018-07-13T06:10:28.352Z,17.75
2018-07-13T06:11:28.353Z,17.73
2018-07-13T06:12:28.352Z,17.76
2018-07-13T06:13:28.357Z,17.84
2018-07-13T06:14:28.356Z,17.90
2018-07-13T06:15:28.359Z,17.93
2018-07-13T06:16:28.361Z,17.94
2018-07-13T06:17:28.395Z,17.98
2018-07-13T06:18:28.360Z,18.02
2018-07-13T06:19:28.362Z,18.03
2018-07-13T06:20:28.363Z,18.09
2018-07-13T06:21:28.364Z,18.09
2018-07-13T06:22:28.366Z,18.18
2018-07-13T06:23:28.365Z,18.21
2018-07-13T06:24:28.367Z,18.23
2018-07-13T06:25:28.369Z,18.26
2018-07-13T06:26:28.370Z,18.27
2018-07-13T06:27:28.371Z,18.27
2018-07-13T06:28:28.372Z,18.43
2018-07-13T06:29:28.378Z,18.37
2018-07-13T06:30:28.374Z,18.46
2018-07-13T06:31:28.411Z,18.36
2018-07-13T06:32:28.377Z,18.48
2018-07-13T06:33:28.379Z,18.57
2018-07-13T06:34:28.384Z,18.60
2018-07-13T06:35:28.382Z,18.55
2018-07-13T06:36:28.384Z,18.55
2018-07-13T06:37:28.385Z,18.58
2018-07-13T06:38:28.386Z,18.60
2018-07-13T06:39:28.389Z,18.53
2018-07-13T06:40:28.389Z,18.57
2018-07-13T06:41:28.391Z,18.57
2018-07-13T06:42:28.392Z,18.67
2018-07-13T06:43:28.393Z,18.81
2018-07-13T06:44:28.395Z,18.83
2018-07-13T06:45:28.398Z,18.74
2018-07-13T06:46:28.403Z,18.74
2018-07-13T06:47:28.402Z,18.81
2018-07-13T06:48:28.424Z,18.78
2018-07-13T06:49:28.404Z,18.78
2018-07-13T06:50:28.457Z,18.68
2018-07-13T06:51:28.407Z,18.61
2018-07-13T06:52:28.408Z,18.76
2018-07-13T06:53:28.413Z,18.68
2018-07-13T06:54:28.413Z,18.68
2018-07-13T06:55:28.414Z,18.82
2018-07-13T06:56:28.447Z,18.71
2018-07-13T06:57:28.418Z,18.68
2018-07-13T06:58:28.420Z,18.74
2018-07-13T06:59:28.421Z,18.71
2018-07-13T07:00:28.425Z,18.68
2018-07-13T07:01:28.426Z,18.70
2018-07-13T07:02:28.446Z,18.78
2018-07-13T07:03:28.429Z,18.74
2018-07-13T07:04:28.430Z,18.86
2018-07-13T07:05:28.433Z,18.86
2018-07-13T07:06:28.434Z,19.00
2018-07-13T07:07:28.456Z,19.00
2018-07-13T07:08:28.436Z,19.17
2018-07-13T07:09:28.446Z,19.24
2018-07-13T07:10:28.445Z,19.30
2018-07-13T07:11:28.443Z,19.29
2018-07-13T07:12:28.445Z,19.37
2018-07-13T07:13:28.447Z,19.37
2018-07-13T07:14:28.449Z,19.30
2018-07-13T07:15:28.453Z,19.47
2018-07-13T07:16:28.452Z,19.47
2018-07-13T07:17:28.456Z,19.47
2018-07-13T07:18:28.621Z,19.57
2018-07-13T07:19:28.461Z,19.62
2018-07-13T07:20:28.462Z,19.75
2018-07-13T07:21:28.574Z,19.84
2018-07-13T07:22:28.467Z,19.94
2018-07-13T07:23:28.510Z,19.93
2018-07-13T07:24:28.476Z,20.02
2018-07-13T07:25:28.474Z,20.04
2018-07-13T07:26:28.476Z,20.14
2018-07-13T07:27:28.510Z,20.19
2018-07-13T07:28:28.481Z,20.18
2018-07-13T07:29:28.484Z,20.17
2018-07-13T07:30:28.490Z,20.27
2018-07-13T07:31:28.490Z,20.50
2018-07-13T07:32:28.491Z,20.53
2018-07-13T07:33:28.496Z,20.83
2018-07-13T07:34:28.499Z,21.04
2018-07-13T07:35:28.503Z,21.35
2018-07-13T07:36:28.506Z,21.33
2018-07-13T07:37:28.510Z,21.38
2018-07-13T07:38:28.593Z,21.54
2018-07-13T07:39:28.518Z,21.48
2018-07-13T07:40:28.522Z,21.40
2018-07-13T07:41:28.525Z,21.29
2018-07-13T07:42:28.562Z,21.37
2018-07-13T07:43:28.536Z,21.29
2018-07-13T07:44:28.539Z,21.35
2018-07-13T07:45:28.544Z,21.43
2018-07-13T07:46:28.550Z,21.48
2018-07-13T07:47:28.554Z,21.48
2018-07-13T07:48:28.558Z,21.77
2018-07-13T07:49:28.562Z,22.14
2018-07-13T07:50:28.572Z,22.03
2018-07-13T07:51:28.590Z,22.00
2018-07-13T07:52:28.580Z,22.12
2018-07-13T07:53:28.582Z,22.14
2018-07-13T07:54:28.589Z,22.21
2018-07-13T07:55:28.595Z,22.51
2018-07-13T07:56:28.647Z,22.43
2018-07-13T07:57:28.665Z,22.59
2018-07-13T07:58:28.610Z,22.56
2018-07-13T07:59:28.614Z,22.62
2018-07-13T08:00:28.621Z,22.52
2018-07-13T08:01:28.626Z,22.43
2018-07-13T08:02:28.631Z,22.58
2018-07-13T08:03:28.638Z,22.78
2018-07-13T08:04:28.646Z,22.95
2018-07-13T08:05:28.649Z,22.95
2018-07-13T08:06:28.722Z,23.10
2018-07-13T08:07:28.730Z,22.99
2018-07-13T08:08:28.669Z,23.07
2018-07-13T08:09:28.680Z,22.96
2018-07-13T08:10:28.686Z,23.34
2018-07-13T08:11:28.742Z,23.67
2018-07-13T08:12:28.705Z,24.14
2018-07-13T08:13:28.754Z,24.82
2018-07-13T08:14:28.763Z,25.31
2018-07-13T08:15:28.731Z,25.74
2018-07-13T08:16:28.741Z,26.08
2018-07-13T08:17:28.751Z,26.15
2018-07-13T08:18:28.764Z,26.04
2018-07-13T08:19:28.777Z,26.23
2018-07-13T08:20:28.786Z,26.46
2018-07-13T08:21:28.798Z,26.34
2018-07-13T08:22:28.810Z,25.99
2018-07-13T08:23:28.821Z,25.92
2018-07-13T08:24:28.834Z,26.08
2018-07-13T08:25:28.937Z,26.33
2018-07-13T08:26:28.860Z,26.68
2018-07-13T08:27:28.875Z,26.96
2018-07-13T08:28:28.887Z,27.28
2018-07-13T08:29:28.899Z,27.13
2018-07-13T08:30:28.912Z,26.85
2018-07-13T08:31:28.928Z,27.01
2018-07-13T08:32:28.939Z,27.26
2018-07-13T08:33:28.952Z,27.45
2018-07-13T08:34:28.969Z,27.60
2018-07-13T08:35:28.982Z,27.93
2018-07-13T08:36:28.993Z,28.19
2018-07-13T08:37:29.009Z,28.43
2018-07-13T08:38:29.023Z,28.45
2018-07-13T08:39:29.037Z,28.60
2018-07-13T08:40:29.052Z,28.68
2018-07-13T08:41:29.069Z,28.77
2018-07-13T08:42:29.081Z,29.03
2018-07-13T08:43:29.096Z,29.07
2018-07-13T08:44:29.112Z,29.07
2018-07-13T08:45:29.126Z,29.12
2018-07-13T08:46:29.140Z,29.22
2018-07-13T08:47:29.156Z,29.28
2018-07-13T08:48:29.170Z,29.31
2018-07-13T08:49:29.187Z,29.31
2018-07-13T08:50:29.277Z,29.20
2018-07-13T08:51:29.230Z,27.82
2018-07-13T08:52:29.233Z,27.10
2018-07-13T08:53:29.247Z,26.89
2018-07-13T08:54:29.264Z,26.60
2018-07-13T08:55:29.279Z,26.15
2018-07-13T08:56:29.293Z,25.77
2018-07-13T08:57:29.307Z,25.83
2018-07-13T08:58:29.324Z,25.74
2018-07-13T08:59:29.341Z,25.76
2018-07-13T09:00:29.353Z,25.89
2018-07-13T09:01:29.370Z,26.26
2018-07-13T09:02:29.382Z,26.33
2018-07-13T09:03:29.396Z,26.15
2018-07-13T09:04:29.722Z,26.42
2018-07-13T09:05:29.425Z,26.41
2018-07-13T09:06:29.467Z,26.15
2018-07-13T09:07:29.498Z,26.63
2018-07-13T09:08:29.468Z,26.81
2018-07-13T09:09:29.481Z,26.68
2018-07-13T09:10:29.520Z,26.63
2018-07-13T09:11:29.553Z,26.27
2018-07-13T09:12:29.524Z,26.16
2018-07-13T09:13:29.536Z,26.10
2018-07-13T09:14:29.551Z,26.19
2018-07-13T09:15:29.586Z,26.31
2018-07-13T09:16:29.579Z,26.74
2018-07-13T09:17:29.594Z,26.97
2018-07-13T09:18:29.607Z,26.81
2018-07-13T09:19:29.621Z,26.63
2018-07-13T09:20:29.634Z,26.22
2018-07-13T09:21:29.649Z,26.33
2018-07-13T09:22:29.662Z,26.13
2018-07-13T09:23:29.676Z,25.98
2018-07-13T09:24:29.689Z,25.98
2018-07-13T09:25:29.702Z,25.89
2018-07-13T09:26:29.716Z,25.85
2018-07-13T09:27:29.730Z,25.83
2018-07-13T09:28:29.745Z,25.92
2018-07-13T09:29:29.757Z,26.10
2018-07-13T09:30:29.770Z,26.45
2018-07-13T09:31:29.784Z,26.83
2018-07-13T09:32:29.797Z,27.23
2018-07-13T09:33:29.808Z,27.43
2018-07-13T09:34:29.823Z,27.79
2018-07-13T09:35:29.837Z,28.04
2018-07-13T09:36:29.852Z,28.45
2018-07-13T09:37:29.864Z,28.80
2018-07-13T09:38:29.893Z,28.97
2018-07-13T09:39:29.894Z,29.09
2018-07-13T09:40:29.903Z,29.05
2018-07-13T09:41:29.918Z,28.67
2018-07-13T09:42:29.934Z,28.38
2018-07-13T09:43:29.945Z,28.53
2018-07-13T09:44:29.957Z,28.35
2018-07-13T09:45:29.972Z,28.65
2018-07-13T09:46:29.992Z,28.96
2018-07-13T09:47:30.002Z,29.02
2018-07-13T09:48:30.013Z,29.12
2018-07-13T09:49:30.027Z,29.34
2018-07-13T09:50:30.040Z,29.39
2018-07-13T09:51:30.055Z,29.57
2018-07-13T09:52:30.067Z,29.59
2018-07-13T09:53:30.112Z,29.73
2018-07-13T09:54:30.095Z,29.86
2018-07-13T09:55:30.111Z,29.76
2018-07-13T09:56:30.125Z,29.77
2018-07-13T09:57:30.139Z,29.90
2018-07-13T09:58:30.718Z,29.83
2018-07-13T09:59:30.167Z,29.89
2018-07-13T10:00:30.431Z,29.73
2018-07-13T10:01:30.353Z,29.34
2018-07-13T10:02:30.449Z,28.77
2018-07-13T10:03:30.226Z,28.23
2018-07-13T10:04:30.238Z,27.67
2018-07-13T10:05:30.521Z,27.26
2018-07-13T10:06:30.286Z,27.22
2018-07-13T10:07:30.281Z,27.79
2018-07-13T10:08:30.294Z,28.13
2018-07-13T10:09:30.308Z,28.55
2018-07-13T10:10:30.321Z,28.97
2018-07-13T10:11:30.336Z,28.96
2018-07-13T10:12:30.348Z,28.49
2018-07-13T10:13:30.455Z,28.41
2018-07-13T10:14:30.375Z,28.64
2018-07-13T10:15:30.388Z,28.59
2018-07-13T10:16:30.418Z,28.80
2018-07-13T10:17:30.519Z,28.94
2018-07-13T10:18:30.427Z,29.06
2018-07-13T10:19:30.440Z,29.16
2018-07-13T10:20:30.452Z,29.28
2018-07-13T10:21:30.468Z,29.15
2018-07-13T10:22:30.481Z,29.12
2018-07-13T10:23:30.506Z,29.03
2018-07-13T10:24:30.506Z,29.00
2018-07-13T10:25:30.565Z,28.78
2018-07-13T10:26:30.537Z,28.45
2018-07-13T10:27:30.548Z,27.86
2018-07-13T10:28:30.560Z,27.44
2018-07-13T10:29:30.573Z,27.05
2018-07-13T10:30:30.585Z,26.73
2018-07-13T10:31:30.599Z,27.03
2018-07-13T10:32:30.611Z,27.29
2018-07-13T10:33:30.623Z,27.66
2018-07-13T10:34:30.638Z,27.73
2018-07-13T10:35:32.127Z,27.52
2018-07-13T10:36:30.661Z,27.33
2018-07-13T10:37:30.676Z,26.97
2018-07-13T10:38:30.688Z,26.88
2018-07-13T10:39:30.701Z,26.92
2018-07-13T10:40:30.715Z,27.00
2018-07-13T10:41:30.723Z,26.76
2018-07-13T10:42:30.736Z,26.64
2018-07-13T10:43:30.749Z,26.64
2018-07-13T10:44:30.758Z,26.34
2018-07-13T10:45:30.772Z,26.36
2018-07-13T10:46:32.062Z,26.41
2018-07-13T10:47:30.795Z,26.66
2018-07-13T10:48:30.807Z,26.71
2018-07-13T10:49:30.818Z,26.96
2018-07-13T10:50:30.833Z,27.30
2018-07-13T10:51:30.849Z,27.44
2018-07-13T10:52:30.852Z,27.33
2018-07-13T10:53:30.862Z,27.33
2018-07-13T10:54:30.876Z,27.58
2018-07-13T10:55:30.886Z,27.75
2018-07-13T10:56:30.896Z,28.10
2018-07-13T10:57:31.102Z,28.09
2018-07-13T10:58:31.018Z,28.08
2018-07-13T10:59:31.010Z,28.19
2018-07-13T11:00:30.943Z,28.16
2018-07-13T11:01:30.954Z,28.41
2018-07-13T11:02:30.966Z,28.40
2018-07-13T11:03:30.977Z,28.06
2018-07-13T11:04:31.074Z,27.78
2018-07-13T11:05:31.000Z,27.67
2018-07-13T11:06:31.012Z,27.55
2018-07-13T11:07:31.023Z,27.91
2018-07-13T11:08:31.112Z,27.85
2018-07-13T11:09:31.046Z,27.48
2018-07-13T11:10:31.056Z,27.53
2018-07-13T11:11:31.068Z,27.40
2018-07-13T11:12:31.079Z,27.30
2018-07-13T11:13:31.107Z,27.38
2018-07-13T11:14:31.098Z,27.68
2018-07-13T11:15:31.111Z,27.79
2018-07-13T11:16:31.118Z,27.97
2018-07-13T11:17:31.363Z,28.03
2018-07-13T11:18:31.164Z,28.06
2018-07-13T11:19:31.152Z,28.20
2018-07-13T11:20:31.164Z,28.23
2018-07-13T11:21:31.173Z,28.20
2018-07-13T11:22:31.184Z,28.12
2018-07-13T11:23:31.195Z,28.20
2018-07-13T11:24:31.207Z,28.12
2018-07-13T11:25:31.216Z,28.06
2018-07-13T11:26:31.227Z,28.22
2018-07-13T11:27:31.238Z,27.82
2018-07-13T11:28:31.248Z,27.18
2018-07-13T11:29:31.258Z,26.73
2018-07-13T11:30:31.270Z,26.63
2018-07-13T11:31:31.281Z,26.79
2018-07-13T11:32:31.290Z,26.93
2018-07-13T11:33:31.301Z,27.19
2018-07-13T11:34:31.391Z,27.22
2018-07-13T11:35:31.322Z,27.26
2018-07-13T11:36:31.330Z,27.10
2018-07-13T11:37:31.340Z,27.18
2018-07-13T11:38:31.373Z,27.48
2018-07-13T11:39:31.395Z,27.30
2018-07-13T11:40:31.370Z,27.35
2018-07-13T11:41:31.380Z,27.23
2018-07-13T11:42:31.391Z,27.41
2018-07-13T11:43:31.397Z,27.37
2018-07-13T11:44:31.406Z,27.40
2018-07-13T11:45:31.417Z,27.20
2018-07-13T11:46:31.426Z,26.88
2018-07-13T11:47:31.436Z,26.64
2018-07-13T11:48:31.445Z,26.59
2018-07-13T11:49:32.121Z,26.34
2018-07-13T11:50:31.464Z,26.51
2018-07-13T11:51:31.474Z,26.68
2018-07-13T11:52:31.486Z,26.67
2018-07-13T11:53:31.493Z,26.42
2018-07-13T11:54:31.579Z,26.64
2018-07-13T11:55:31.514Z,26.71
2018-07-13T11:56:31.522Z,26.70
2018-07-13T11:57:31.531Z,26.68
2018-07-13T11:58:31.541Z,26.76
2018-07-13T11:59:31.649Z,27.05
2018-07-13T12:00:31.609Z,26.96
2018-07-13T12:01:31.574Z,27.11
2018-07-13T12:02:31.604Z,27.63
2018-07-13T12:03:31.641Z,27.01
2018-07-13T12:04:31.599Z,26.60
2018-07-13T12:05:31.608Z,26.33
2018-07-13T12:06:31.617Z,26.53
2018-07-13T12:07:31.700Z,26.82
2018-07-13T12:08:31.635Z,27.01
2018-07-13T12:09:31.645Z,27.00
2018-07-13T12:10:31.653Z,27.20
2018-07-13T12:11:31.663Z,27.44
2018-07-13T12:12:31.731Z,27.82
2018-07-13T12:13:31.680Z,28.10
2018-07-13T12:14:31.769Z,28.20
2018-07-13T12:15:31.701Z,28.40
2018-07-13T12:16:31.729Z,28.62
2018-07-13T12:17:31.814Z,29.00
2018-07-13T12:18:31.731Z,29.22
2018-07-13T12:19:31.741Z,29.49
2018-07-13T12:20:31.747Z,29.58
2018-07-13T12:21:31.757Z,29.57
2018-07-13T12:22:31.767Z,29.49
2018-07-13T12:23:31.778Z,29.57
2018-07-13T12:24:31.786Z,29.55
2018-07-13T12:25:31.797Z,29.57
2018-07-13T12:26:31.807Z,29.46
2018-07-13T12:27:31.819Z,29.25
2018-07-13T12:28:31.827Z,29.16
2018-07-13T12:29:31.838Z,29.13
2018-07-13T12:30:31.849Z,29.18
2018-07-13T12:31:31.859Z,29.06
2018-07-13T12:32:32.019Z,29.00
2018-07-13T12:33:31.879Z,28.50
2018-07-13T12:34:31.890Z,28.41
2018-07-13T12:35:31.900Z,28.40
2018-07-13T12:36:31.908Z,28.19
2018-07-13T12:37:32.003Z,28.19
2018-07-13T12:38:31.933Z,28.16
2018-07-13T12:39:31.967Z,28.33
2018-07-13T12:40:31.955Z,28.41
2018-07-13T12:41:31.962Z,28.67
2018-07-13T12:42:31.972Z,28.67
2018-07-13T12:43:31.984Z,28.41
2018-07-13T12:44:31.993Z,28.34
2018-07-13T12:45:32.002Z,28.46
2018-07-13T12:46:32.012Z,28.72
2018-07-13T12:47:32.022Z,28.35
2018-07-13T12:48:32.032Z,28.06
2018-07-13T12:49:32.146Z,27.97
2018-07-13T12:50:32.103Z,27.73
2018-07-13T12:51:32.061Z,27.60
2018-07-13T12:52:32.070Z,27.91